Time;durP1;ratioP1;P1;durP2;ratioP2;P2;SDS_P1;SDS_P2;PMS_P1;PMS_P2;Temp;Humidity;BMP_temperature;BMP_pressure;BME280_temperature;BME280_humidity;BME280_pressure;Samples;Min_cycle;Max_cycle;Signal;HPM_P1;HPM_P2
2023/03/24 00:02:36;;;;;;;12.37;11.20;;;13.10;90.30;;;;;;6249834;28;20497;-64
2023/03/24 00:05:39;;;;;;;12.30;10.13;;;13.10;90.50;;;;;;6250092;28;20482;-64
2023/03/24 00:08:46;;;;;;;10.63;9.67;;;13.10;90.50;;;;;;6249811;28;20481;-64
2023/03/24 00:11:49;;;;;;;12.40;11.23;;;13.00;90.60;;;;;;6249808;28;20471;-64
2023/03/24 00:14:54;;;;;;;11.27;10.37;;;13.00;90.60;;;;;;6249850;28;20466;-63
2023/03/24 00:17:57;;;;;;;12.93;11.10;;;13.00;90.80;;;;;;6254611;28;20478;-64
2023/03/24 00:21:01;;;;;;;12.83;11.63;;;13.00;91.00;;;;;;6253939;28;20474;-63
2023/03/24 00:24:06;;;;;;;12.57;11.27;;;12.90;90.90;;;;;;6254364;28;20491;-63
2023/03/24 00:27:12;;;;;;;12.20;10.83;;;12.90;91.00;;;;;;6254227;28;20577;-64
2023/03/24 00:30:18;;;;;;;12.33;11.23;;;12.80;91.40;;;;;;6254222;28;20466;-64
2023/03/24 00:33:21;;;;;;;14.10;10.80;;;12.80;91.30;;;;;;6253749;28;20466;-64
2023/03/24 00:36:27;;;;;;;12.00;10.77;;;12.80;91.60;;;;;;6253914;28;20483;-64
2023/03/24 00:39:31;;;;;;;13.10;11.80;;;12.70;91.90;;;;;;6253740;28;20565;-64
2023/03/24 00:42:35;;;;;;;10.63;9.63;;;12.60;92.10;;;;;;6254134;28;20477;-63
2023/03/24 00:45:44;;;;;;;12.90;11.80;;;12.60;92.10;;;;;;6253100;28;20486;-64
2023/03/24 00:48:50;;;;;;;13.20;11.80;;;12.60;92.40;;;;;;6253670;28;20431;-64
2023/03/24 00:51:53;;;;;;;10.73;9.73;;;12.50;92.60;;;;;;6253384;28;20780;-64
2023/03/24 00:54:58;;;;;;;12.77;11.57;;;12.50;92.70;;;;;;6253721;28;20474;-63
2023/03/24 00:58:01;;;;;;;11.30;10.20;;;12.50;92.80;;;;;;6253500;28;20772;-64
2023/03/24 01:01:06;;;;;;;13.33;10.53;;;12.50;92.90;;;;;;6253614;28;20477;-64
2023/03/24 01:04:10;;;;;;;12.13;10.63;;;12.50;93.00;;;;;;6253317;28;20467;-63
2023/03/24 01:07:16;;;;;;;12.23;11.10;;;12.50;93.10;;;;;;6253017;28;20482;-63
2023/03/24 01:10:25;;;;;;;12.27;11.07;;;12.40;93.10;;;;;;6253530;28;20475;-64
2023/03/24 01:13:29;;;;;;;13.47;11.10;;;12.40;93.20;;;;;;6253538;28;20467;-64
2023/03/24 01:16:35;;;;;;;12.50;10.50;;;12.40;93.40;;;;;;6253140;28;20483;-64
2023/03/24 01:19:39;;;;;;;11.43;10.23;;;12.30;93.40;;;;;;6252581;28;20463;-64
2023/03/24 01:22:45;;;;;;;13.60;12.30;;;12.30;93.70;;;;;;6253191;28;20474;-64
2023/03/24 01:25:48;;;;;;;11.13;10.17;;;12.30;93.90;;;;;;6252269;28;20479;-64
2023/03/24 01:28:52;;;;;;;10.33;9.43;;;12.20;94.00;;;;;;6252633;28;20475;-64
2023/03/24 01:31:56;;;;;;;11.40;10.20;;;12.20;94.10;;;;;;6252727;28;20486;-64
2023/03/24 01:34:59;;;;;;;11.93;10.77;;;12.20;94.10;;;;;;6252402;28;20968;-64
2023/03/24 01:38:06;;;;;;;11.47;10.33;;;12.30;94.20;;;;;;6252530;28;20490;-64
2023/03/24 01:41:09;;;;;;;14.67;11.20;;;12.20;94.20;;;;;;6253042;28;20482;-64
2023/03/24 01:44:27;;;;;;;12.47;11.17;;;12.20;94.20;;;;;;6252332;28;20980;-64
2023/03/24 01:47:32;;;;;;;12.40;11.40;;;12.20;94.30;;;;;;6252391;28;20490;-64
2023/03/24 01:50:38;;;;;;;13.23;11.80;;;12.20;94.30;;;;;;6252016;28;20921;-64
2023/03/24 01:53:44;;;;;;;16.40;13.73;;;12.10;94.30;;;;;;6252196;28;20952;-64
2023/03/24 01:56:53;;;;;;;11.30;10.10;;;12.10;94.50;;;;;;6252084;28;20490;-64
2023/03/24 02:00:03;;;;;;;13.53;10.77;;;12.10;94.50;;;;;;6252439;28;20522;-64
2023/03/24 02:03:11;;;;;;;11.03;10.03;;;12.10;94.70;;;;;;6252284;28;20474;-64
2023/03/24 02:06:17;;;;;;;12.00;10.30;;;12.00;94.80;;;;;;6252012;28;20821;-64
2023/03/24 02:09:20;;;;;;;11.37;10.20;;;12.00;94.90;;;;;;6251569;28;20466;-64
2023/03/24 02:12:24;;;;;;;12.83;11.27;;;12.00;95.10;;;;;;6251203;28;21022;-64
2023/03/24 02:15:30;;;;;;;11.47;10.53;;;11.90;95.20;;;;;;6251010;28;20796;-64
2023/03/24 02:18:43;;;;;;;11.43;10.23;;;12.00;95.40;;;;;;6251660;28;20475;-64
2023/03/24 02:22:20;;;;;;;13.10;10.43;;;11.90;95.60;;;;;;6251530;28;20917;-64
2023/03/24 02:26:09;;;;;;;11.13;10.10;;;11.90;95.70;;;;;;6250544;28;20478;-65
2023/03/24 02:29:46;;;;;;;12.03;10.83;;;11.90;95.80;;;;;;6251664;28;20797;-64
2023/03/24 02:33:27;;;;;;;12.43;11.13;;;11.90;95.90;;;;;;6251551;28;20995;-64
2023/03/24 02:37:03;;;;;;;12.80;11.57;;;11.90;96.10;;;;;;6227581;28;20494;-64
2023/03/24 02:40:20;;;;;;;10.77;9.77;;;11.80;96.10;;;;;;6246391;28;20489;-64
2023/03/24 02:43:37;;;;;;;10.93;9.97;;;11.90;96.10;;;;;;6251639;28;20471;-64
2023/03/24 02:46:46;;;;;;;12.37;11.10;;;11.80;96.10;;;;;;6250851;28;20482;-64
2023/03/24 02:49:56;;;;;;;11.70;10.60;;;11.80;96.20;;;;;;6250943;28;20478;-65
2023/03/24 02:53:08;;;;;;;13.33;10.23;;;11.80;96.30;;;;;;6250906;28;20475;-67
2023/03/24 02:56:17;;;;;;;12.03;10.93;;;11.80;96.40;;;;;;6251048;28;20502;-65
2023/03/24 02:59:27;;;;;;;12.30;11.10;;;11.70;96.40;;;;;;6260713;28;20466;-66
2023/03/24 03:02:34;;;;;;;12.70;10.23;;;11.70;96.50;;;;;;6273262;28;20485;-64
2023/03/24 03:05:41;;;;;;;11.23;10.23;;;11.70;96.60;;;;;;6249587;28;20621;-64
2023/03/24 03:08:47;;;;;;;11.17;10.03;;;11.70;96.70;;;;;;6249694;28;20471;-64
2023/03/24 03:11:56;;;;;;;10.87;9.97;;;11.80;96.70;;;;;;6249904;28;20975;-65
2023/03/24 03:15:03;;;;;;;11.20;10.20;;;11.80;96.70;;;;;;6249670;28;20865;-64
2023/03/24 03:18:09;;;;;;;11.50;10.40;;;11.80;96.60;;;;;;6249732;28;20972;-65
2023/03/24 03:21:15;;;;;;;12.63;11.43;;;11.80;96.70;;;;;;6249385;28;20489;-65
2023/03/24 03:24:25;;;;;;;14.13;11.43;;;11.90;96.70;;;;;;6249348;28;20474;-65
2023/03/24 03:27:37;;;;;;;14.13;10.10;;;11.90;96.70;;;;;;6261901;28;20466;-65
2023/03/24 03:30:43;;;;;;;13.07;11.97;;;11.90;97.00;;;;;;6272109;28;20512;-65
2023/03/24 03:33:53;;;;;;;12.40;11.10;;;11.90;96.70;;;;;;6272467;28;20492;-65
2023/03/24 03:37:05;;;;;;;13.10;11.00;;;11.90;96.70;;;;;;6272110;28;20454;-65
2023/03/24 03:40:11;;;;;;;13.93;11.60;;;11.90;96.90;;;;;;6272451;28;20481;-65
2023/03/24 03:43:16;;;;;;;12.57;11.07;;;11.90;97.00;;;;;;6272275;28;20489;-65
2023/03/24 03:46:19;;;;;;;13.23;11.37;;;11.80;97.10;;;;;;6273230;28;20888;-64
2023/03/24 03:49:24;;;;;;;12.87;11.47;;;11.80;97.20;;;;;;6273663;28;20753;-65
2023/03/24 03:52:27;;;;;;;13.77;12.47;;;11.80;97.20;;;;;;6278203;28;20480;-65
2023/03/24 03:55:31;;;;;;;11.87;10.80;;;11.80;97.20;;;;;;6278953;28;20466;-65
2023/03/24 03:58:36;;;;;;;12.97;11.87;;;11.80;97.30;;;;;;6278790;28;20548;-64
2023/03/24 04:01:40;;;;;;;12.87;11.47;;;11.80;97.40;;;;;;6277386;28;20466;-64
2023/03/24 04:05:04;;;;;;;13.03;11.77;;;11.80;97.40;;;;;;6276949;28;20916;-65
2023/03/24 04:08:33;;;;;;;12.53;11.33;;;11.70;97.50;;;;;;6253860;28;21087;-65
2023/03/24 04:11:50;;;;;;;12.87;11.63;;;11.80;97.50;;;;;;6254041;28;20803;-65
2023/03/24 04:15:16;;;;;;;12.70;11.37;;;11.70;97.50;;;;;;6253820;28;20463;-64
2023/03/24 04:18:54;;;;;;;14.37;12.53;;;11.70;97.70;;;;;;6253601;28;20471;-65
2023/03/24 04:22:06;;;;;;;12.03;10.93;;;11.60;97.90;;;;;;6180005;28;20751;-65
2023/03/24 04:25:15;;;;;;;13.30;11.80;;;11.70;98.10;;;;;;6252624;28;20806;-64
2023/03/24 04:28:25;;;;;;;14.60;12.60;;;11.70;98.10;;;;;;6253767;28;20580;-64
2023/03/24 04:31:32;;;;;;;15.27;13.57;;;11.70;98.20;;;;;;6253683;28;20475;-64
2023/03/24 04:34:39;;;;;;;16.67;13.40;;;11.70;98.10;;;;;;6252982;28;20856;-64
2023/03/24 04:37:43;;;;;;;13.93;11.67;;;11.70;98.00;;;;;;6253289;28;20466;-65
2023/03/24 04:40:49;;;;;;;12.70;11.50;;;11.80;98.00;;;;;;6253285;28;20485;-65
2023/03/24 04:43:53;;;;;;;12.47;11.37;;;11.70;97.90;;;;;;6253191;28;20474;-65
2023/03/24 04:47:01;;;;;;;12.90;11.70;;;11.80;98.00;;;;;;6251972;28;20490;-65
2023/03/24 04:50:08;;;;;;;12.80;11.70;;;11.80;98.10;;;;;;6244163;28;20470;-65
2023/03/24 04:53:11;;;;;;;12.30;11.10;;;11.80;98.10;;;;;;6252997;28;20474;-65
2023/03/24 04:56:29;;;;;;;13.03;11.83;;;11.70;98.10;;;;;;6251783;28;20976;-65
2023/03/24 04:59:33;;;;;;;13.30;12.10;;;11.70;98.20;;;;;;6252767;28;20467;-65
2023/03/24 05:02:38;;;;;;;12.60;11.50;;;11.70;98.40;;;;;;6251090;28;20566;-65
2023/03/24 05:05:41;;;;;;;12.90;11.60;;;11.70;98.40;;;;;;6251739;28;20482;-64
2023/03/24 05:08:45;;;;;;;12.23;11.07;;;11.70;98.60;;;;;;6252621;28;20481;-65
2023/03/24 05:11:49;;;;;;;13.10;11.90;;;11.70;98.70;;;;;;6252068;28;20478;-65
2023/03/24 05:14:52;;;;;;;12.50;11.40;;;11.80;98.80;;;;;;6254562;28;20793;-65
2023/03/24 05:17:57;;;;;;;15.93;12.10;;;11.80;98.70;;;;;;6255572;28;20463;-65
2023/03/24 05:21:00;;;;;;;16.10;12.60;;;11.80;98.70;;;;;;6255724;28;20498;-65
2023/03/24 05:24:04;;;;;;;16.03;12.87;;;11.80;98.60;;;;;;6253726;28;20562;-65
2023/03/24 05:27:07;;;;;;;15.60;11.87;;;11.80;99.20;;;;;;6255556;28;20491;-64
2023/03/24 05:30:12;;;;;;;18.23;16.23;;;11.80;98.90;;;;;;6253089;28;20944;-64
2023/03/24 05:33:16;;;;;;;15.87;14.47;;;11.80;98.90;;;;;;6251782;28;20485;-64
2023/03/24 05:36:20;;;;;;;17.83;16.30;;;11.70;99.10;;;;;;6251783;28;20490;-65
2023/03/24 05:39:23;;;;;;;17.80;16.10;;;11.70;99.20;;;;;;6251617;28;20554;-66
2023/03/24 05:42:26;;;;;;;18.27;16.57;;;11.70;99.30;;;;;;6251512;28;20957;-66
2023/03/24 05:45:29;;;;;;;17.57;15.63;;;11.70;99.30;;;;;;6251400;28;20483;-65
2023/03/24 05:48:34;;;;;;;18.63;16.83;;;11.90;99.50;;;;;;6251491;28;20958;-64
2023/03/24 05:51:37;;;;;;;17.73;15.83;;;12.00;99.30;;;;;;6251051;28;20869;-64
2023/03/24 05:54:41;;;;;;;16.83;15.17;;;12.10;99.10;;;;;;6246944;28;20478;-64
2023/03/24 05:57:44;;;;;;;18.73;16.63;;;12.20;98.90;;;;;;6249337;28;20462;-65
2023/03/24 06:00:47;;;;;;;20.80;16.60;;;12.40;98.70;;;;;;6251214;28;20904;-65
2023/03/24 06:03:52;;;;;;;18.67;16.47;;;12.50;98.40;;;;;;6251410;28;20454;-65
2023/03/24 06:06:57;;;;;;;19.93;16.40;;;12.70;97.60;;;;;;6251165;28;20479;-65
2023/03/24 06:10:02;;;;;;;18.40;16.47;;;12.90;97.40;;;;;;6250831;28;20435;-65
2023/03/24 06:13:07;;;;;;;22.77;17.53;;;12.90;97.20;;;;;;6250076;28;20459;-65
2023/03/24 06:16:11;;;;;;;17.17;15.30;;;13.10;97.00;;;;;;6250887;28;20475;-65
2023/03/24 06:19:15;;;;;;;17.17;15.47;;;13.10;96.80;;;;;;6250533;28;20812;-65
2023/03/24 06:22:20;;;;;;;20.80;15.57;;;13.20;96.80;;;;;;6250806;28;20474;-65
2023/03/24 06:25:26;;;;;;;18.00;16.10;;;13.20;96.70;;;;;;6250277;28;20478;-65
2023/03/24 06:28:33;;;;;;;20.80;14.83;;;13.30;96.50;;;;;;6250721;28;20467;-65
2023/03/24 06:31:37;;;;;;;18.73;16.13;;;13.40;96.50;;;;;;6251065;28;20490;-65
2023/03/24 06:34:41;;;;;;;19.57;17.30;;;13.40;96.20;;;;;;6250303;28;20982;-65
2023/03/24 06:37:45;;;;;;;18.70;16.70;;;13.50;96.10;;;;;;6250938;28;20482;-65
2023/03/24 06:40:48;;;;;;;19.20;16.43;;;13.50;95.80;;;;;;6250472;28;20482;-65
2023/03/24 06:43:51;;;;;;;17.13;15.50;;;13.70;96.00;;;;;;6250357;28;20482;-65
2023/03/24 06:46:54;;;;;;;17.87;16.03;;;13.80;95.50;;;;;;6250162;28;20478;-65
2023/03/24 06:49:59;;;;;;;19.97;17.93;;;14.10;95.20;;;;;;6249804;28;20474;-65
2023/03/24 06:53:02;;;;;;;18.70;16.80;;;14.30;94.70;;;;;;6249356;28;20477;-65
2023/03/24 06:56:06;;;;;;;17.73;15.90;;;14.30;94.50;;;;;;6250086;28;20957;-65
2023/03/24 06:59:09;;;;;;;17.83;15.93;;;14.40;94.30;;;;;;6250216;28;20969;-64
2023/03/24 07:02:13;;;;;;;18.90;17.10;;;14.80;93.40;;;;;;6249949;28;20471;-65
2023/03/24 07:05:17;;;;;;;20.83;17.00;;;14.90;93.10;;;;;;6249607;28;20479;-64
2023/03/24 07:08:21;;;;;;;19.50;17.30;;;15.10;92.90;;;;;;6249493;28;20467;-65
2023/03/24 07:11:27;;;;;;;18.47;16.70;;;15.10;92.50;;;;;;6249753;28;20481;-65
2023/03/24 07:14:30;;;;;;;25.97;17.00;;;15.30;92.50;;;;;;6249738;28;20471;-66
2023/03/24 07:17:34;;;;;;;19.30;17.30;;;16.00;92.30;;;;;;6249690;28;20797;-64
2023/03/24 07:20:40;;;;;;;20.40;17.30;;;16.80;90.70;;;;;;6249594;28;20489;-64
2023/03/24 07:23:44;;;;;;;18.17;16.33;;;17.50;87.70;;;;;;6249151;28;20506;-65
2023/03/24 07:26:47;;;;;;;17.87;15.30;;;17.70;85.80;;;;;;6249137;28;20239;-65
2023/03/24 07:29:51;;;;;;;21.03;17.80;;;18.10;83.10;;;;;;6249335;28;20243;-65
2023/03/24 07:32:56;;;;;;;18.07;15.13;;;18.00;81.50;;;;;;6249660;28;20239;-65
2023/03/24 07:36:00;;;;;;;18.27;16.47;;;17.70;81.70;;;;;;6249210;28;20482;-65
2023/03/24 07:39:05;;;;;;;17.83;16.17;;;17.50;82.50;;;;;;6249235;28;20820;-65
2023/03/24 07:42:08;;;;;;;19.63;15.97;;;17.50;82.50;;;;;;6249311;28;20963;-65
2023/03/24 07:45:14;;;;;;;18.27;16.63;;;17.30;82.50;;;;;;6249830;28;20366;-65
2023/03/24 07:48:18;;;;;;;18.57;16.40;;;17.40;83.50;;;;;;6248878;28;20489;-65
2023/03/24 07:51:22;;;;;;;20.17;15.83;;;17.60;82.60;;;;;;6249232;28;20670;-66
2023/03/24 07:54:26;;;;;;;18.30;16.50;;;17.70;81.80;;;;;;6248971;28;20471;-66
2023/03/24 07:57:29;;;;;;;16.97;15.27;;;17.90;81.20;;;;;;6249301;28;20232;-67
2023/03/24 08:00:34;;;;;;;19.23;17.33;;;18.70;80.70;;;;;;6249056;28;20232;-65
2023/03/24 08:03:39;;;;;;;18.63;16.70;;;19.60;76.80;;;;;;6240232;28;20231;-65
2023/03/24 08:06:44;;;;;;;18.00;16.23;;;19.80;73.80;;;;;;6249161;28;20247;-65
2023/03/24 08:09:47;;;;;;;20.63;18.63;;;20.00;72.50;;;;;;6249361;28;20227;-65
2023/03/24 08:12:51;;;;;;;18.43;16.63;;;20.40;71.40;;;;;;6249400;28;20205;-65
2023/03/24 08:15:55;;;;;;;19.03;17.30;;;20.70;69.20;;;;;;6248839;28;20913;-65
2023/03/24 08:18:58;;;;;;;22.97;18.63;;;20.80;68.00;;;;;;6248988;28;20196;-65
2023/03/24 08:22:03;;;;;;;19.40;17.50;;;20.70;66.40;;;;;;6248828;28;20567;-65
2023/03/24 08:25:07;;;;;;;19.17;17.43;;;20.60;66.50;;;;;;6248718;28;20236;-66
2023/03/24 08:28:13;;;;;;;17.90;16.00;;;20.30;66.20;;;;;;6249082;28;20244;-65
2023/03/24 08:31:16;;;;;;;20.43;18.17;;;20.20;67.00;;;;;;6249017;28;20228;-65
2023/03/24 08:34:19;;;;;;;19.67;17.60;;;20.20;67.00;;;;;;6248951;28;20350;-65
2023/03/24 08:37:24;;;;;;;20.73;17.50;;;20.40;66.10;;;;;;6251364;28;20232;-65
2023/03/24 08:40:30;;;;;;;18.93;17.10;;;20.40;65.30;;;;;;6253249;28;20789;-65
2023/03/24 08:43:35;;;;;;;19.80;17.80;;;20.80;65.50;;;;;;6253460;28;20243;-65
2023/03/24 08:46:39;;;;;;;20.27;18.27;;;21.30;64.00;;;;;;6252568;28;20757;-66
2023/03/24 08:49:42;;;;;;;20.10;18.10;;;21.20;63.00;;;;;;6253418;28;20556;-66
2023/03/24 08:52:47;;;;;;;18.97;17.17;;;21.50;62.80;;;;;;6253386;28;20232;-66
2023/03/24 08:55:51;;;;;;;18.73;17.03;;;21.70;61.10;;;;;;6253062;28;20247;-65
2023/03/24 08:58:56;;;;;;;20.60;18.60;;;22.10;60.00;;;;;;6252714;28;20252;-65
2023/03/24 09:02:00;;;;;;;19.23;17.33;;;22.30;59.00;;;;;;6252906;28;20224;-65
2023/03/24 09:05:04;;;;;;;22.97;18.47;;;22.30;58.00;;;;;;6248477;28;20235;-65
2023/03/24 09:08:08;;;;;;;17.87;16.07;;;22.80;58.10;;;;;;6252466;28;20259;-65
2023/03/24 09:11:16;;;;;;;20.13;17.70;;;23.50;56.70;;;;;;6252515;28;20229;-65
2023/03/24 09:14:21;;;;;;;19.07;17.00;;;24.10;54.90;;;;;;6252367;28;20224;-65
2023/03/24 09:17:24;;;;;;;19.17;17.17;;;25.40;52.40;;;;;;6252364;28;20661;-66
2023/03/24 09:20:27;;;;;;;17.63;15.93;;;27.60;47.90;;;;;;6252259;28;20310;-66
2023/03/24 09:23:32;;;;;;;17.60;16.03;;;29.90;41.90;;;;;;6251999;28;20242;-66
2023/03/24 09:26:35;;;;;;;16.77;15.35;;;31.40;36.70;;;;;;6251723;28;20236;-66
2023/03/24 09:29:38;;;;;;;18.00;16.15;;;32.40;32.90;;;;;;6251898;28;20353;-66
2023/03/24 09:32:42;;;;;;;16.63;14.95;;;33.70;30.30;;;;;;6251940;28;20231;-67
2023/03/24 09:35:45;;;;;;;16.58;15.13;;;34.00;28.60;;;;;;6252013;28;20246;-65
2023/03/24 09:38:49;;;;;;;16.88;15.20;;;33.50;28.60;;;;;;6251949;28;20219;-66
2023/03/24 09:41:54;;;;;;;16.25;14.68;;;32.80;29.20;;;;;;6252260;28;20238;-67
2023/03/24 09:44:59;;;;;;;16.02;14.50;;;32.90;29.50;;;;;;6251549;28;20599;-66
2023/03/24 09:48:08;;;;;;;16.33;15.02;;;33.30;28.00;;;;;;6251894;28;20238;-66
2023/03/24 09:51:19;;;;;;;16.05;14.55;;;32.90;28.10;;;;;;6251465;28;20238;-65
2023/03/24 09:54:31;;;;;;;15.43;14.13;;;31.70;28.60;;;;;;6251603;28;20223;-67
2023/03/24 09:57:37;;;;;;;15.75;14.40;;;30.50;29.80;;;;;;6251278;28;20689;-65
2023/03/24 10:00:41;;;;;;;20.93;15.40;;;29.50;31.20;;;;;;6271614;28;20310;-66
2023/03/24 10:03:45;;;;;;;15.75;14.55;;;29.30;32.00;;;;;;6275562;28;20215;-66
2023/03/24 10:06:55;;;;;;;15.63;14.15;;;30.20;30.70;;;;;;6276234;28;20243;-66
2023/03/24 10:10:01;;;;;;;15.27;14.07;;;30.50;30.40;;;;;;6278019;28;20634;-65
2023/03/24 10:13:07;;;;;;;14.30;13.20;;;30.70;30.00;;;;;;6279528;28;20234;-67
2023/03/24 10:16:16;;;;;;;15.70;14.30;;;31.20;29.60;;;;;;6286383;28;20231;-66
2023/03/24 10:19:34;;;;;;;15.40;14.20;;;31.40;29.30;;;;;;6288098;28;20234;-67
2023/03/24 10:22:45;;;;;;;15.43;14.23;;;30.80;29.90;;;;;;6287325;28;20580;-68
2023/03/24 10:25:54;;;;;;;13.70;12.60;;;30.60;29.80;;;;;;6296560;28;20238;-67
2023/03/24 10:29:11;;;;;;;15.07;13.88;;;30.10;30.30;;;;;;6284772;28;20242;-67
2023/03/24 10:32:20;;;;;;;17.27;15.53;;;29.60;30.50;;;;;;6275539;28;20235;-67
2023/03/24 10:35:27;;;;;;;15.77;14.30;;;29.20;30.60;;;;;;6277295;28;20235;-66
2023/03/24 10:38:30;;;;;;;15.90;14.40;;;29.30;30.80;;;;;;6280098;28;20223;-68
2023/03/24 10:41:36;;;;;;;15.00;13.75;;;29.50;30.60;;;;;;6275262;28;20253;-66
2023/03/24 10:44:40;;;;;;;13.90;12.60;;;29.70;30.60;;;;;;6274827;28;20699;-67
2023/03/24 10:47:44;;;;;;;14.07;12.63;;;29.80;30.20;;;;;;6274688;28;20235;-68
2023/03/24 10:50:47;;;;;;;14.30;12.93;;;29.90;30.10;;;;;;6273598;28;20241;-66
2023/03/24 10:53:51;;;;;;;15.63;14.32;;;30.00;30.20;;;;;;6274269;28;20568;-65
2023/03/24 10:57:05;;;;;;;14.77;13.40;;;29.70;30.00;;;;;;6272323;28;20237;-64
2023/03/24 11:00:18;;;;;;;14.40;12.90;;;28.90;31.30;;;;;;6272509;28;20223;-64
2023/03/24 11:03:28;;;;;;;16.93;13.43;;;29.10;31.00;;;;;;6232493;28;20739;-65
2023/03/24 11:06:33;;;;;;;15.60;14.07;;;29.00;31.30;;;;;;6266663;28;20281;-67
2023/03/24 11:09:41;;;;;;;15.50;14.20;;;29.00;31.40;;;;;;6274177;28;20668;-67
2023/03/24 11:13:01;;;;;;;16.67;15.23;;;29.00;31.20;;;;;;6273824;28;20227;-69
2023/03/24 11:16:10;;;;;;;15.83;14.20;;;28.80;31.40;;;;;;6274435;28;20231;-64
2023/03/24 11:19:19;;;;;;;15.17;13.67;;;28.00;32.50;;;;;;6273555;28;20356;-67
2023/03/24 11:22:26;;;;;;;17.43;15.73;;;27.70;32.80;;;;;;6273972;28;20241;-66
2023/03/24 11:25:31;;;;;;;20.00;14.87;;;27.40;33.60;;;;;;6274133;28;20246;-68
2023/03/24 11:28:41;;;;;;;16.17;13.50;;;27.00;34.20;;;;;;6273991;28;20658;-68
2023/03/24 11:31:51;;;;;;;18.20;13.37;;;26.60;34.90;;;;;;6274543;28;20233;-66
2023/03/24 11:35:02;;;;;;;12.90;11.83;;;26.30;35.50;;;;;;6274317;28;20680;-68
2023/03/24 11:38:06;;;;;;;14.03;12.70;;;26.00;36.00;;;;;;6274393;28;20241;-66
2023/03/24 11:41:21;;;;;;;14.73;12.37;;;25.60;37.10;;;;;;6274279;28;20323;-68
2023/03/24 11:44:26;;;;;;;13.37;12.13;;;25.40;37.00;;;;;;6268764;28;20224;-63
2023/03/24 11:47:32;;;;;;;13.90;12.50;;;25.20;37.40;;;;;;6274128;28;20238;-63
2023/03/24 11:50:38;;;;;;;12.97;11.10;;;25.00;37.90;;;;;;6273617;28;20231;-64
2023/03/24 11:53:47;;;;;;;12.23;11.13;;;24.90;38.40;;;;;;6273946;28;20349;-64
2023/03/24 11:56:52;;;;;;;13.87;12.50;;;24.90;38.30;;;;;;6273626;28;20326;-65
2023/03/24 12:00:03;;;;;;;12.03;10.97;;;24.80;38.50;;;;;;6273782;28;20791;-64
2023/03/24 12:03:36;;;;;;;12.40;11.07;;;24.50;39.00;;;;;;6273887;28;20242;-65
2023/03/24 12:06:55;;;;;;;12.73;11.53;;;24.40;39.30;;;;;;6273384;28;20289;-65
2023/03/24 12:10:04;;;;;;;13.37;12.20;;;24.30;39.00;;;;;;6273338;28;20234;-63
2023/03/24 12:13:12;;;;;;;12.60;11.47;;;24.20;39.20;;;;;;6277538;28;20266;-63
2023/03/24 12:16:49;;;;;;;13.63;12.33;;;24.20;39.20;;;;;;6278625;28;20253;-64
2023/03/24 12:20:19;;;;;;;14.30;12.47;;;23.90;39.70;;;;;;6265343;28;20232;-65
2023/03/24 12:23:28;;;;;;;13.70;11.60;;;23.80;40.30;;;;;;6250874;28;20227;-64
2023/03/24 12:26:33;;;;;;;14.47;12.97;;;23.80;40.20;;;;;;6251395;28;20232;-64
2023/03/24 12:29:48;;;;;;;12.43;11.23;;;23.70;40.30;;;;;;6252007;28;20247;-64
2023/03/24 12:33:00;;;;;;;11.63;10.50;;;23.40;40.90;;;;;;6252042;28;20714;-64
2023/03/24 12:36:23;;;;;;;12.03;10.93;;;23.20;41.40;;;;;;6251783;28;20244;-65
2023/03/24 12:39:30;;;;;;;14.27;11.10;;;23.00;41.70;;;;;;6252635;28;20231;-65
2023/03/24 12:42:37;;;;;;;12.10;10.50;;;22.90;41.90;;;;;;6252638;28;20232;-64
2023/03/24 12:45:44;;;;;;;12.13;10.93;;;22.90;41.90;;;;;;6262686;28;20228;-63
2023/03/24 12:49:09;;;;;;;12.07;10.93;;;22.90;42.00;;;;;;6277276;28;20224;-64
2023/03/24 12:52:24;;;;;;;10.37;9.57;;;22.90;42.20;;;;;;6278207;28;20251;-65
2023/03/24 12:55:35;;;;;;;12.27;11.07;;;22.80;42.40;;;;;;6260528;28;20232;-64
2023/03/24 12:58:43;;;;;;;11.93;10.43;;;22.70;42.70;;;;;;6252658;28;20241;-63
2023/03/24 13:01:52;;;;;;;10.63;9.43;;;22.60;43.30;;;;;;6252067;28;20228;-63
2023/03/24 13:05:04;;;;;;;12.23;11.03;;;22.50;43.70;;;;;;6252353;28;20309;-63
2023/03/24 13:08:15;;;;;;;10.87;9.83;;;22.50;43.80;;;;;;6252036;28;20232;-62
2023/03/24 13:11:28;;;;;;;10.33;9.43;;;22.40;43.90;;;;;;6259094;28;20304;-62
2023/03/24 13:14:51;;;;;;;10.73;9.50;;;22.40;44.00;;;;;;6301038;28;20250;-63
2023/03/24 13:18:03;;;;;;;10.87;9.90;;;22.30;44.00;;;;;;6302239;28;20235;-63
2023/03/24 13:21:14;;;;;;;9.80;9.00;;;22.20;44.70;;;;;;6274711;28;20231;-63
2023/03/24 13:24:19;;;;;;;11.00;9.97;;;22.20;43.70;;;;;;6276560;28;20238;-62
2023/03/24 13:27:25;;;;;;;11.00;10.07;;;22.20;43.90;;;;;;6275980;28;20795;-62
2023/03/24 13:30:33;;;;;;;10.93;9.17;;;22.20;43.80;;;;;;6276410;28;20242;-63
2023/03/24 13:33:39;;;;;;;10.30;9.40;;;22.20;43.90;;;;;;6276156;28;20228;-63
2023/03/24 13:36:48;;;;;;;10.80;9.70;;;22.10;44.00;;;;;;6276043;28;20559;-63
2023/03/24 13:39:57;;;;;;;9.77;9.00;;;22.10;44.40;;;;;;6274445;28;20313;-68
2023/03/24 13:43:07;;;;;;;9.70;8.70;;;22.10;44.30;;;;;;6275433;28;20194;-69
2023/03/24 13:46:13;;;;;;;10.30;9.37;;;22.20;44.30;;;;;;6274878;28;20231;-67
2023/03/24 13:49:16;;;;;;;10.80;9.70;;;22.30;44.30;;;;;;6274210;28;20242;-67
2023/03/24 13:52:27;;;;;;;9.00;8.20;;;22.40;44.30;;;;;;6274008;28;20661;-66
2023/03/24 13:55:36;;;;;;;11.27;10.27;;;22.70;44.10;;;;;;6274009;28;20685;-67
2023/03/24 13:59:05;;;;;;;11.37;9.37;;;23.00;43.50;;;;;;6276000;28;20266;-68
2023/03/24 14:02:23;;;;;;;10.90;9.93;;;23.40;42.50;;;;;;6276226;28;20227;-67
2023/03/24 14:05:42;;;;;;;12.00;10.90;;;23.80;41.60;;;;;;6275666;28;20240;-67
2023/03/24 14:09:04;;;;;;;10.80;9.70;;;24.00;41.10;;;;;;6275652;28;20242;-66
2023/03/24 14:12:20;;;;;;;11.87;10.37;;;24.20;41.00;;;;;;6275494;28;20227;-69
2023/03/24 14:15:28;;;;;;;10.33;9.33;;;24.20;40.70;;;;;;6275458;28;20628;-68
2023/03/24 14:18:42;;;;;;;10.83;9.93;;;24.20;40.60;;;;;;6274471;28;20353;-68
2023/03/24 14:21:45;;;;;;;11.40;10.30;;;24.20;40.50;;;;;;6250619;28;20239;-69
2023/03/24 14:24:59;;;;;;;10.67;9.67;;;23.90;40.30;;;;;;6250389;28;20591;-67
2023/03/24 14:28:29;;;;;;;11.50;10.50;;;23.60;40.50;;;;;;6250926;28;20193;-67
2023/03/24 14:31:34;;;;;;;11.80;10.47;;;23.60;41.10;;;;;;6250732;28;20571;-68
2023/03/24 14:34:38;;;;;;;9.80;8.87;;;23.30;41.20;;;;;;6250135;28;20236;-67
2023/03/24 14:37:50;;;;;;;9.17;8.23;;;23.10;41.70;;;;;;6250768;28;20235;-69
2023/03/24 14:40:58;;;;;;;11.50;9.40;;;22.90;42.00;;;;;;6250420;28;20224;-67
2023/03/24 14:44:01;;;;;;;10.13;9.33;;;23.00;42.40;;;;;;6250197;28;20231;-68
2023/03/24 14:47:05;;;;;;;9.47;8.63;;;23.00;42.40;;;;;;6272511;28;20322;-68
2023/03/24 14:50:18;;;;;;;11.33;10.23;;;22.90;42.40;;;;;;6275938;28;20560;-69
2023/03/24 14:53:23;;;;;;;9.63;8.47;;;22.60;42.60;;;;;;6274939;28;20298;-63
2023/03/24 14:56:35;;;;;;;10.23;9.30;;;22.60;42.90;;;;;;6274091;28;20700;-65
2023/03/24 14:59:47;;;;;;;10.67;9.67;;;22.40;42.60;;;;;;6274052;28;20237;-65
2023/03/24 15:02:53;;;;;;;10.83;9.93;;;22.40;42.90;;;;;;6274745;28;20227;-65
2023/03/24 15:06:13;;;;;;;10.50;9.30;;;22.30;42.90;;;;;;6274357;28;20624;-64
2023/03/24 15:09:18;;;;;;;11.13;9.67;;;22.20;43.10;;;;;;6274125;28;20234;-64
2023/03/24 15:12:23;;;;;;;10.40;9.40;;;22.20;43.30;;;;;;6273726;28;20739;-65
2023/03/24 15:15:26;;;;;;;10.40;9.40;;;22.10;43.30;;;;;;6273856;28;20474;-65
2023/03/24 15:18:30;;;;;;;10.13;9.20;;;22.10;43.40;;;;;;6273548;28;20630;-66
2023/03/24 15:21:36;;;;;;;9.07;8.13;;;22.10;43.30;;;;;;6274052;28;20215;-65
2023/03/24 15:24:42;;;;;;;10.57;9.67;;;22.30;43.20;;;;;;6268498;28;20342;-65
2023/03/24 15:27:51;;;;;;;11.63;8.80;;;22.50;43.10;;;;;;6273577;28;20224;-66
2023/03/24 15:30:58;;;;;;;9.83;9.03;;;22.60;43.30;;;;;;6273357;28;20361;-65
2023/03/24 15:34:06;;;;;;;10.70;9.70;;;22.80;43.10;;;;;;6251204;28;20189;-64
2023/03/24 15:37:21;;;;;;;10.10;9.00;;;22.90;43.20;;;;;;6273960;28;20254;-68
2023/03/24 15:40:40;;;;;;;11.53;10.43;;;22.70;43.20;;;;;;6275326;28;20234;-69
2023/03/24 15:43:49;;;;;;;14.73;10.43;;;22.70;43.00;;;;;;6280143;28;20234;-69
2023/03/24 15:46:56;;;;;;;10.13;9.00;;;22.70;43.50;;;;;;6290334;28;20556;-70
2023/03/24 15:50:02;;;;;;;10.80;9.60;;;22.40;44.10;;;;;;6275562;28;20815;-67
2023/03/24 15:53:23;;;;;;;9.43;8.60;;;22.10;44.60;;;;;;6277288;28;20620;-69
2023/03/24 15:56:30;;;;;;;9.60;8.70;;;21.90;45.30;;;;;;6277005;28;20231;-69